FNGI

Ngjiva Pereira Airport

Ngiva, Angola
METAR FNGI 251500Z 29006KT 9999 FEW016 32/04 Q1013
Observed Flight Rules
Sep-25 @ 15:00 UTC (52 minutes ago) Visual Flight Rules
Wind Visibility Clouds
290° at 6 knots 10,000+ meters
  • Few at 1,600' AGL
Temperatures Readings
Current 32°C / 90°F
Dewpoint 4°C / 39°F
Humidity 17%
Altimeter 29.91" Hg
Pressure 1013 hPa
Elevation 1087
METAR FNGI 251500Z 29006KT 9999 FEW016 32/04 Q1013
Observed Flight Rules
Sep-25 @ 15:00 UTC
(52 minutes ago)
VFR
Wind Visibility
290° at 6 knots 10,000+ meters
Clouds
  • Few at 1,600' AGL
Temperature Dewpoint
32°C / 90°F 4°C / 39°F
Humidity Altimeter Pressure
17% 29.91" Hg 1013 hPa